Time;durP1;ratioP1;P1;durP2;ratioP2;P2;SDS_P1;SDS_P2;PMS_P1;PMS_P2;Temp;Humidity;BMP_temperature;BMP_pressure;BME280_temperature;BME280_humidity;BME280_pressure;Samples;Min_cycle;Max_cycle;Signal;HPM_P1;HPM_P2
2021/06/19 00:00:33;;;;;;;15.00;8.23;;;;;;;23.40;49.28;100628.94;5083579;28;20093;-83
2021/06/19 00:03:01;;;;;;;8.20;7.35;;;;;;;23.30;49.72;100621.09;5048994;28;20046;-81
2021/06/19 00:05:29;;;;;;;10.75;7.07;;;;;;;23.30;49.38;100628.31;5082494;28;20048;-82
2021/06/19 00:07:57;;;;;;;13.18;7.25;;;;;;;23.47;49.27;100619.19;5082633;28;20056;-82
2021/06/19 00:10:25;;;;;;;9.68;6.65;;;;;;;23.43;49.36;100617.84;5089590;28;20438;-84
2021/06/19 00:12:54;;;;;;;10.43;7.30;;;;;;;23.40;49.79;100615.50;5077030;28;20056;-82
2021/06/19 00:15:22;;;;;;;7.95;7.00;;;;;;;23.31;49.61;100620.06;5065853;28;20032;-80
2021/06/19 00:17:51;;;;;;;12.43;7.60;;;;;;;23.49;49.25;100617.97;5096756;28;20087;-81
2021/06/19 00:20:21;;;;;;;12.82;7.55;;;;;;;23.39;49.57;100620.03;5074648;28;20044;-81
2021/06/19 00:22:49;;;;;;;9.65;7.57;;;;;;;23.44;49.42;100614.16;5044622;28;20472;-82
2021/06/19 00:25:21;;;;;;;10.27;7.22;;;;;;;23.45;49.62;100613.97;5050846;28;20119;-83
2021/06/19 00:27:49;;;;;;;11.05;7.32;;;;;;;23.48;49.43;100615.47;5075158;28;20051;-82
2021/06/19 00:30:18;;;;;;;10.82;7.13;;;;;;;23.29;49.93;100618.59;5068311;28;20048;-83
2021/06/19 00:32:46;;;;;;;12.88;8.05;;;;;;;23.32;50.01;100619.03;5072005;28;20052;-83
2021/06/19 00:35:17;;;;;;;8.70;7.45;;;;;;;23.50;49.37;100613.44;5067517;28;20048;-85
2021/06/19 00:37:47;;;;;;;10.48;7.32;;;;;;;23.43;49.73;100616.00;5052832;28;20048;-82
2021/06/19 00:40:16;;;;;;;9.25;7.00;;;;;;;23.39;50.24;100613.84;5086930;28;20284;-83
2021/06/19 00:42:59;;;;;;;9.45;7.30;;;;;;;23.31;50.27;100609.31;5053776;28;20052;-83
2021/06/19 00:45:33;;;;;;;8.40;7.38;;;;;;;23.25;50.37;100604.66;5061762;28;20044;-82
2021/06/19 00:48:06;;;;;;;11.90;7.65;;;;;;;23.11;50.88;100616.94;5082653;28;20047;-82
2021/06/19 00:50:33;;;;;;;9.63;7.70;;;;;;;23.15;51.08;100612.09;5065100;28;20048;-86
2021/06/19 00:53:03;;;;;;;11.82;7.07;;;;;;;23.05;51.16;100606.03;5050311;28;20040;-83
2021/06/19 00:55:31;;;;;;;13.43;7.32;;;;;;;23.15;51.05;100620.97;5053326;28;20033;-82
2021/06/19 00:58:01;;;;;;;9.32;7.47;;;;;;;23.15;51.15;100609.41;5084294;28;20059;-83
2021/06/19 01:00:30;;;;;;;12.15;7.72;;;;;;;23.03;51.74;100608.91;5058726;28;20064;-82
2021/06/19 01:03:01;;;;;;;10.05;7.57;;;;;;;22.86;52.09;100607.22;5018141;28;20053;-80
2021/06/19 01:05:30;;;;;;;10.02;7.80;;;;;;;22.89;51.95;100598.84;5046447;28;20493;-82
2021/06/19 01:07:59;;;;;;;11.63;7.38;;;;;;;22.77;52.73;100602.88;5042243;28;20040;-84
2021/06/19 01:10:28;;;;;;;20.83;7.72;;;;;;;22.88;52.20;100597.19;5051996;28;20048;-83
2021/06/19 01:12:58;;;;;;;8.85;7.85;;;;;;;22.81;52.57;100596.19;5079239;28;20078;-83
2021/06/19 01:15:25;;;;;;;10.05;7.43;;;;;;;22.80;52.72;100598.03;5074737;28;20040;-82
2021/06/19 01:17:53;;;;;;;9.35;7.63;;;;;;;22.86;52.81;100602.69;5066644;28;20093;-84
2021/06/19 01:20:21;;;;;;;13.63;7.80;;;;;;;22.73;53.13;100602.38;5081433;28;20171;-84
2021/06/19 01:22:52;;;;;;;11.23;7.20;;;;;;;22.88;52.69;100592.66;5088740;28;20049;-83
2021/06/19 01:25:28;;;;;;;11.40;7.78;;;;;;;22.74;53.31;100591.50;5068350;28;20048;-81
2021/06/19 01:27:57;;;;;;;8.40;7.32;;;;;;;22.54;54.08;100597.38;5049793;28;20513;-81
2021/06/19 01:30:26;;;;;;;9.38;7.38;;;;;;;22.36;54.62;100595.69;5091318;28;20048;-82
2021/06/19 01:32:54;;;;;;;7.90;7.05;;;;;;;22.36;54.37;100602.91;5055263;28;20074;-82
2021/06/19 01:35:23;;;;;;;10.70;7.38;;;;;;;22.55;54.03;100597.19;5053338;28;20056;-83
2021/06/19 01:37:55;;;;;;;9.73;7.30;;;;;;;22.55;53.80;100599.06;5069724;28;20072;-82
2021/06/19 01:40:29;;;;;;;13.07;8.07;;;;;;;22.50;54.21;100597.72;5059130;28;20048;-82
2021/06/19 01:42:59;;;;;;;;;;;;;;;22.54;54.28;100592.84;5068998;28;20036;-85
2021/06/19 01:45:33;;;;;;;9.45;7.28;;;;;;;22.52;54.05;100580.63;5068893;28;19983;-82
2021/06/19 01:48:03;;;;;;;7.88;7.03;;;;;;;22.43;54.39;100587.84;5062387;28;20059;-83
2021/06/19 01:50:32;;;;;;;9.25;8.02;;;;;;;22.37;54.19;100583.97;5039348;28;20040;-85
2021/06/19 01:53:01;;;;;;;9.68;7.60;;;;;;;22.45;54.32;100585.81;5063752;28;20060;-82
2021/06/19 01:55:29;;;;;;;11.63;8.25;;;;;;;22.61;53.88;100588.50;5072453;28;20119;-84
2021/06/19 01:57:57;;;;;;;10.00;7.50;;;;;;;22.54;53.80;100581.28;5079773;28;20484;-83
2021/06/19 02:00:34;;;;;;;12.27;7.30;;;;;;;22.44;54.71;100584.97;5084607;28;20047;-83
2021/06/19 02:03:02;;;;;;;11.68;7.60;;;;;;;22.50;54.21;100595.03;5070363;28;20053;-83
2021/06/19 02:05:31;;;;;;;10.48;7.78;;;;;;;22.64;53.79;100588.13;5046249;28;20048;-84
2021/06/19 02:08:05;;;;;;;14.30;8.30;;;;;;;22.46;55.01;100596.38;5057599;28;20040;-84
2021/06/19 02:10:35;;;;;;;9.20;7.45;;;;;;;22.24;55.81;100580.94;5086552;28;20150;-84
2021/06/19 02:13:04;;;;;;;11.43;8.05;;;;;;;22.14;55.93;100581.09;5085337;28;20071;-82
2021/06/19 02:15:33;;;;;;;7.88;7.07;;;;;;;22.07;55.93;100588.13;5088431;28;20066;-82
2021/06/19 02:18:01;;;;;;;11.90;7.70;;;;;;;22.18;55.28;100574.41;5078061;28;20442;-84
2021/06/19 02:20:29;;;;;;;10.82;7.75;;;;;;;22.16;55.89;100580.97;5049283;28;20037;-82
2021/06/19 02:22:57;;;;;;;9.38;7.38;;;;;;;22.16;55.35;100581.81;5082293;28;20040;-82
2021/06/19 02:25:27;;;;;;;11.05;7.82;;;;;;;22.19;55.66;100578.75;5079108;28;20066;-82
2021/06/19 02:28:02;;;;;;;8.05;7.25;;;;;;;22.15;55.66;100580.09;5053115;28;20044;-81
2021/06/19 02:30:51;;;;;;;12.50;7.93;;;;;;;22.03;56.15;100581.41;5086292;28;20040;-82
2021/06/19 02:33:18;;;;;;;14.68;8.43;;;;;;;21.98;56.36;100575.72;5067289;28;20066;-81
2021/06/19 02:35:50;;;;;;;8.68;7.78;;;;;;;21.93;56.77;100581.56;5086266;28;20062;-83
2021/06/19 02:38:21;;;;;;;10.52;8.35;;;;;;;21.95;56.52;100587.59;5066943;28;20513;-83
2021/06/19 02:40:49;;;;;;;13.63;8.07;;;;;;;21.93;56.80;100586.06;5027991;28;20344;-84
2021/06/19 02:43:18;;;;;;;10.25;8.27;;;;;;;21.86;57.30;100593.94;5053841;28;20052;-82
2021/06/19 02:45:46;;;;;;;12.48;7.68;;;;;;;21.94;56.75;100587.78;5074060;28;20056;-84
2021/06/19 02:48:14;;;;;;;9.23;7.88;;;;;;;21.88;57.18;100588.41;5048172;28;20097;-81
2021/06/19 02:50:43;;;;;;;13.60;9.70;;;;;;;21.81;57.71;100587.41;5072495;28;20059;-84
2021/06/19 02:53:12;;;;;;;10.40;7.88;;;;;;;21.85;57.16;100581.56;5068136;28;20658;-83
2021/06/19 02:55:43;;;;;;;8.82;7.97;;;;;;;22.00;57.04;100581.75;5061196;28;20401;-82
2021/06/19 02:58:12;;;;;;;12.30;8.30;;;;;;;22.15;56.42;100581.94;5055743;28;20593;-84
2021/06/19 03:00:40;;;;;;;12.43;9.13;;;;;;;22.09;56.58;100590.63;5062688;28;20052;-83
2021/06/19 03:03:11;;;;;;;10.95;7.85;;;;;;;22.17;56.39;100588.84;5061894;28;20052;-81
2021/06/19 03:05:38;;;;;;;11.90;8.52;;;;;;;22.13;56.61;100582.13;5081154;28;20137;-84
2021/06/19 03:08:08;;;;;;;11.45;8.30;;;;;;;21.95;57.65;100581.41;5048971;28;20378;-81
2021/06/19 03:10:38;;;;;;;10.30;8.88;;;;;;;22.04;56.93;100576.91;5048199;28;20040;-84
2021/06/19 03:13:06;;;;;;;12.90;8.38;;;;;;;21.99;57.10;100572.03;5069845;28;20057;-81
2021/06/19 03:15:34;;;;;;;13.07;9.07;;;;;;;21.94;57.33;100582.41;5080894;28;20473;-84
2021/06/19 03:18:02;;;;;;;13.35;8.38;;;;;;;21.94;57.31;100598.50;5052162;28;20369;-82
2021/06/19 03:20:30;;;;;;;9.38;8.38;;;;;;;22.02;57.24;100603.00;5069867;28;20036;-81
2021/06/19 03:23:00;;;;;;;10.10;8.18;;;;;;;21.96;57.96;100599.16;5072467;28;20048;-81
2021/06/19 03:25:30;;;;;;;11.00;8.45;;;;;;;21.91;58.45;100593.44;5067423;28;20032;-81
2021/06/19 03:28:00;;;;;;;10.43;8.18;;;;;;;22.06;57.69;100589.09;5083075;28;20044;-83
2021/06/19 03:30:29;;;;;;;10.65;8.48;;;;;;;22.26;57.17;100589.69;5043189;28;20427;-82
2021/06/19 03:32:57;;;;;;;8.73;7.80;;;;;;;22.20;57.17;100585.81;5078427;28;20472;-81
2021/06/19 03:35:25;;;;;;;9.85;8.23;;;;;;;22.32;56.78;100594.38;5073184;28;20048;-83
2021/06/19 03:37:54;;;;;;;11.65;8.00;;;;;;;22.26;57.31;100584.31;5069854;28;20032;-83
2021/06/19 03:40:23;;;;;;;10.70;9.20;;;;;;;22.34;56.91;100583.50;5044855;28;20048;-82
2021/06/19 03:42:50;;;;;;;11.13;8.55;;;;;;;22.52;56.03;100592.19;5048731;28;20098;-83
2021/06/19 03:45:19;;;;;;;13.48;9.00;;;;;;;22.68;55.30;100592.16;5071877;28;20040;-82
2021/06/19 03:47:48;;;;;;;9.20;8.20;;;;;;;22.76;55.38;100588.63;5071624;28;20044;-82
2021/06/19 03:50:20;;;;;;;9.98;8.77;;;;;;;22.82;54.94;100579.06;5051597;28;20147;-83
2021/06/19 03:52:53;;;;;;;10.65;7.53;;;;;;;22.88;54.94;100586.44;5064136;28;20057;-82
2021/06/19 03:55:21;;;;;;;9.85;8.85;;;;;;;22.93;54.95;100597.53;5063504;28;20047;-82
2021/06/19 03:57:48;;;;;;;9.60;8.50;;;;;;;23.09;54.19;100602.84;5069599;28;20054;-82
2021/06/19 04:00:18;;;;;;;10.82;8.18;;;;;;;23.13;54.37;100597.97;5074842;28;20102;-83
2021/06/19 04:02:47;;;;;;;12.93;9.10;;;;;;;23.17;54.49;100602.81;5053400;28;20128;-83
2021/06/19 04:05:14;;;;;;;14.43;8.85;;;;;;;23.25;53.98;100600.13;5044908;28;20446;-82
2021/06/19 04:07:45;;;;;;;12.93;8.95;;;;;;;23.40;53.72;100604.75;5085808;28;20130;-83
2021/06/19 04:10:14;;;;;;;10.52;8.52;;;;;;;23.43;53.46;100599.03;5065059;28;20412;-83
2021/06/19 04:12:42;;;;;;;10.98;8.75;;;;;;;23.47;53.62;100600.38;5044159;28;20539;-83
2021/06/19 04:15:11;;;;;;;9.50;8.50;;;;;;;23.54;53.52;100603.19;5048478;28;20448;-83
2021/06/19 04:17:40;;;;;;;11.63;8.75;;;;;;;23.75;52.97;100600.75;5047973;28;20041;-82
2021/06/19 04:20:09;;;;;;;16.77;9.52;;;;;;;23.91;52.23;100602.50;5068092;28;20045;-82
2021/06/19 04:22:37;;;;;;;10.48;8.20;;;;;;;24.14;51.82;100589.09;5060734;28;20526;-83
2021/06/19 04:25:05;;;;;;;12.88;8.90;;;;;;;24.83;50.15;100583.63;5079956;28;20072;-84
2021/06/19 04:27:42;;;;;;;9.30;8.30;;;;;;;25.75;47.25;100584.03;5077612;28;20047;-83
2021/06/19 04:30:12;;;;;;;11.30;8.05;;;;;;;26.66;45.22;100584.34;5053373;28;20044;-83
2021/06/19 04:32:41;;;;;;;13.35;8.32;;;;;;;27.61;42.73;100580.91;5062035;28;20048;-83
2021/06/19 04:35:09;;;;;;;12.07;8.10;;;;;;;28.94;40.21;100587.28;5068545;28;20097;-83
2021/06/19 04:37:37;;;;;;;11.23;7.55;;;;;;;30.05;37.99;100586.25;5066056;28;20531;-83
2021/06/19 04:40:09;;;;;;;11.15;8.20;;;;;;;31.05;35.49;100582.72;5081895;28;20199;-82
2021/06/19 04:42:39;;;;;;;13.02;8.40;;;;;;;31.60;34.68;100583.53;5084425;28;20040;-82
2021/06/19 04:45:10;;;;;;;13.43;8.13;;;;;;;32.01;33.44;100580.03;5052344;28;20535;-83
2021/06/19 04:47:39;;;;;;;11.88;8.00;;;;;;;32.23;33.13;100582.22;5048186;28;20055;-82
2021/06/19 04:50:09;;;;;;;10.30;7.82;;;;;;;32.75;31.87;100585.13;5062170;28;20097;-83
2021/06/19 04:52:40;;;;;;;10.23;7.88;;;;;;;32.80;31.80;100593.44;5063289;28;20048;-83
2021/06/19 04:55:10;;;;;;;11.45;7.65;;;;;;;33.23;31.52;100595.78;5055729;28;20052;-83
2021/06/19 04:57:39;;;;;;;8.35;7.65;;;;;;;34.22;29.99;100598.28;5079857;28;20062;-82
2021/06/19 05:00:09;;;;;;;13.27;7.82;;;;;;;34.84;28.46;100596.50;5080901;28;20060;-81
2021/06/19 05:02:37;;;;;;;9.30;7.88;;;;;;;34.74;28.91;100598.03;5067153;28;20048;-83
2021/06/19 05:05:05;;;;;;;12.73;7.57;;;;;;;34.95;28.87;100603.81;5074354;28;20058;-84
2021/06/19 05:07:34;;;;;;;9.20;7.75;;;;;;;35.13;28.19;100605.44;5066193;28;20336;-83
2021/06/19 05:10:06;;;;;;;10.57;8.63;;;;;;;35.58;27.89;100597.00;5064104;28;20048;-83
2021/06/19 05:12:35;;;;;;;10.45;8.05;;;;;;;35.86;27.24;100592.34;5075265;28;20057;-83
2021/06/19 05:15:04;;;;;;;9.48;7.95;;;;;;;35.39;27.92;100599.19;5068585;28;20048;-84
2021/06/19 05:17:32;;;;;;;11.90;8.95;;;;;;;35.75;27.43;100597.72;5086508;28;20052;-82
2021/06/19 05:19:59;;;;;;;8.48;7.68;;;;;;;36.12;27.42;100596.19;5080960;28;20051;-82
2021/06/19 05:22:27;;;;;;;8.55;7.65;;;;;;;35.72;27.73;100584.56;5079095;28;20041;-83
2021/06/19 05:24:54;;;;;;;11.50;8.05;;;;;;;36.48;26.72;100595.44;5041555;28;20425;-84
2021/06/19 05:27:21;;;;;;;9.85;8.85;;;;;;;36.78;26.06;100593.97;5060608;28;20045;-83
2021/06/19 05:29:49;;;;;;;9.35;8.45;;;;;;;36.45;26.34;100590.47;5078388;28;20489;-82
2021/06/19 05:32:17;;;;;;;9.95;8.13;;;;;;;37.09;25.83;100596.91;5064434;28;20140;-83
2021/06/19 05:34:45;;;;;;;12.75;7.72;;;;;;;36.99;26.00;100600.44;5097955;28;20058;-83
2021/06/19 05:37:14;;;;;;;11.50;8.18;;;;;;;37.01;25.70;100600.97;5053726;28;20052;-82
2021/06/19 05:39:42;;;;;;;12.35;8.65;;;;;;;37.12;25.63;100599.97;5082176;28;20068;-83
2021/06/19 05:42:10;;;;;;;8.65;7.72;;;;;;;37.50;25.10;100608.91;5057973;28;20048;-83
2021/06/19 05:44:37;;;;;;;13.57;9.20;;;;;;;38.23;24.20;100600.53;5041866;28;20424;-83
2021/06/19 05:47:06;;;;;;;9.35;8.40;;;;;;;38.29;24.01;100606.88;5040071;28;20066;-83
2021/06/19 05:49:43;;;;;;;8.68;7.82;;;;;;;38.70;23.48;100607.69;5056624;28;20080;-84
2021/06/19 05:52:11;;;;;;;11.63;9.30;;;;;;;38.18;24.10;100598.63;5030619;28;20491;-84
2021/06/19 05:54:38;;;;;;;9.88;8.88;;;;;;;37.62;25.03;100593.03;5066199;28;20052;-84
2021/06/19 05:57:07;;;;;;;10.00;8.60;;;;;;;39.00;23.74;100595.81;5041209;28;20071;-84
2021/06/19 05:59:35;;;;;;;9.50;8.13;;;;;;;39.29;22.86;100595.19;5063603;28;20045;-83
2021/06/19 06:02:04;;;;;;;8.82;7.93;;;;;;;39.14;23.15;100594.13;5046330;28;20237;-84
2021/06/19 06:04:32;;;;;;;10.38;8.57;;;;;;;39.68;22.51;100593.34;5086935;28;20125;-85
2021/06/19 06:07:00;;;;;;;8.73;7.82;;;;;;;39.61;22.46;100598.31;5054598;28;20070;-85
2021/06/19 06:09:28;;;;;;;10.02;8.13;;;;;;;39.52;23.13;100593.69;5051140;28;20048;-85
2021/06/19 06:11:56;;;;;;;11.07;8.23;;;;;;;39.42;22.65;100600.91;5069004;28;20063;-84
2021/06/19 06:14:24;;;;;;;8.93;8.13;;;;;;;39.04;23.29;100601.56;5071700;28;20079;-84
2021/06/19 06:16:52;;;;;;;10.05;8.82;;;;;;;39.07;23.41;100601.03;5066410;28;20374;-84
2021/06/19 06:19:21;;;;;;;10.02;9.02;;;;;;;38.30;24.46;100605.78;5052597;28;20139;-84
2021/06/19 06:21:52;;;;;;;8.83;8.00;;;;;;;39.08;23.58;100605.41;5068364;28;20055;-85
2021/06/19 06:24:20;;;;;;;10.10;8.38;;;;;;;38.92;23.70;100604.66;5085653;28;20101;-84
2021/06/19 06:26:47;;;;;;;9.50;7.88;;;;;;;39.96;21.83;100600.03;5059336;28;20452;-84
2021/06/19 06:29:14;;;;;;;9.10;8.32;;;;;;;39.53;22.31;100607.16;5069653;28;20426;-84
2021/06/19 06:31:51;;;;;;;8.60;7.95;;;;;;;38.87;23.33;100616.50;5065118;28;20421;-85
2021/06/19 06:34:20;;;;;;;10.93;8.45;;;;;;;39.53;22.67;100609.09;5080578;28;20102;-85
2021/06/19 06:36:47;;;;;;;9.10;7.57;;;;;;;39.51;22.81;100595.63;5066921;28;20063;-84
2021/06/19 06:39:16;;;;;;;10.82;8.20;;;;;;;39.37;22.95;100594.59;5059789;28;20423;-83
2021/06/19 06:41:44;;;;;;;12.63;8.55;;;;;;;40.16;21.68;100603.78;5070926;28;20056;-82
2021/06/19 06:44:11;;;;;;;12.07;8.70;;;;;;;39.21;23.03;100611.16;5094229;28;20050;-86
2021/06/19 06:46:39;;;;;;;10.77;8.30;;;;;;;39.40;22.87;100607.78;5059035;28;20516;-83
2021/06/19 06:49:06;;;;;;;13.43;9.00;;;;;;;39.80;22.05;100614.22;5049348;28;20044;-85
2021/06/19 06:51:34;;;;;;;10.18;8.18;;;;;;;39.88;22.45;100616.38;5071809;28;20077;-82
2021/06/19 06:54:02;;;;;;;9.40;8.18;;;;;;;38.57;23.83;100605.50;5073677;28;20052;-82
2021/06/19 06:56:30;;;;;;;8.18;7.47;;;;;;;38.83;23.96;100600.81;5052319;28;20109;-83
2021/06/19 06:58:57;;;;;;;8.90;7.78;;;;;;;39.92;22.45;100609.19;5093041;28;20056;-85
2021/06/19 07:01:25;;;;;;;12.07;8.27;;;;;;;40.43;21.53;100611.53;5049296;28;20037;-83
2021/06/19 07:03:56;;;;;;;10.32;8.38;;;;;;;40.67;21.59;100623.50;5068163;28;20079;-84
2021/06/19 07:06:24;;;;;;;21.40;8.98;;;;;;;40.50;22.00;100612.84;5086828;28;20051;-86
2021/06/19 07:08:52;;;;;;;12.38;8.25;;;;;;;40.40;21.92;100612.13;5089924;28;20052;-82
2021/06/19 07:11:20;;;;;;;8.93;8.10;;;;;;;41.40;20.90;100613.31;5081941;28;20051;-83
2021/06/19 07:13:48;;;;;;;10.88;7.82;;;;;;;40.24;21.94;100609.50;5061732;28;20054;-82
2021/06/19 07:16:15;;;;;;;11.55;7.82;;;;;;;40.13;21.90;100602.44;5062275;28;20044;-84
2021/06/19 07:18:43;;;;;;;9.50;7.97;;;;;;;40.57;21.54;100607.00;5086184;28;20120;-84
2021/06/19 07:21:11;;;;;;;11.25;8.18;;;;;;;41.39;20.61;100606.97;5043311;28;20513;-82
2021/06/19 07:23:39;;;;;;;9.90;8.80;;;;;;;41.41;20.45;100609.44;5073094;28;20497;-83
2021/06/19 07:26:06;;;;;;;9.98;8.93;;;;;;;41.43;20.33;100601.66;5042222;28;20594;-85
2021/06/19 07:28:34;;;;;;;9.98;7.80;;;;;;;42.21;19.60;100601.09;5076785;28;20156;-84
2021/06/19 07:31:01;;;;;;;12.65;8.30;;;;;;;42.09;19.76;100597.94;5053971;28;20051;-84
2021/06/19 07:33:29;;;;;;;10.00;8.13;;;;;;;42.02;19.77;100603.03;5071765;28;20098;-85
2021/06/19 07:35:57;;;;;;;9.95;8.70;;;;;;;42.56;19.39;100604.34;5058368;28;20040;-83
2021/06/19 07:38:26;;;;;;;9.73;7.88;;;;;;;42.19;19.88;100606.06;5059139;28;20052;-84
2021/06/19 07:40:53;;;;;;;10.15;8.70;;;;;;;42.69;19.84;100609.13;5059989;28;20143;-82
2021/06/19 07:43:23;;;;;;;9.32;8.45;;;;;;;42.37;19.64;100606.34;5065302;28;20051;-82
2021/06/19 07:45:51;;;;;;;8.30;7.55;;;;;;;43.70;18.66;100610.09;5077561;28;20132;-83
2021/06/19 07:48:19;;;;;;;9.85;8.05;;;;;;;42.87;18.90;100603.78;5077766;28;20056;-83
2021/06/19 07:50:46;;;;;;;10.93;8.15;;;;;;;43.83;18.40;100602.88;5077009;28;20090;-84
2021/06/19 07:53:14;;;;;;;9.18;8.35;;;;;;;43.22;18.68;100607.78;5054287;28;20493;-83
2021/06/19 07:55:41;;;;;;;9.27;8.23;;;;;;;43.63;18.43;100602.19;5050899;28;20048;-85
2021/06/19 07:58:09;;;;;;;9.13;7.45;;;;;;;42.88;19.06;100603.47;5065587;28;20049;-82
2021/06/19 08:00:36;;;;;;;10.50;8.43;;;;;;;42.77;19.07;100602.03;5075751;28;20093;-83
2021/06/19 08:03:05;;;;;;;12.45;9.02;;;;;;;42.88;19.16;100608.22;5076278;28;20424;-85
2021/06/19 08:05:32;;;;;;;9.68;8.65;;;;;;;41.98;19.96;100613.88;5044013;28;20050;-85
2021/06/19 08:08:00;;;;;;;10.75;8.60;;;;;;;41.68;20.73;100606.84;5075053;28;20579;-83
2021/06/19 08:10:27;;;;;;;13.40;8.98;;;;;;;42.73;19.46;100604.59;5049249;28;20328;-83
2021/06/19 08:12:55;;;;;;;10.45;8.10;;;;;;;41.85;20.05;100598.03;5050077;28;20106;-83
2021/06/19 08:15:23;;;;;;;11.15;8.38;;;;;;;42.25;20.00;100606.03;5075533;28;20484;-83
2021/06/19 08:17:50;;;;;;;10.50;8.45;;;;;;;42.28;19.54;100606.22;5057983;28;20097;-83
2021/06/19 08:20:19;;;;;;;8.98;8.07;;;;;;;42.47;19.45;100598.69;5053314;28;20043;-84
2021/06/19 08:22:47;;;;;;;11.55;7.85;;;;;;;42.14;19.72;100600.59;5047108;28;20123;-82
2021/06/19 08:25:15;;;;;;;10.93;9.13;;;;;;;43.53;18.36;100601.63;5078558;28;20056;-83
2021/06/19 08:27:43;;;;;;;11.25;7.80;;;;;;;43.51;18.54;100599.16;5067308;28;20501;-83
2021/06/19 08:30:11;;;;;;;9.88;8.13;;;;;;;42.79;18.89;100604.50;5072362;28;20137;-84
2021/06/19 08:32:39;;;;;;;10.88;7.88;;;;;;;40.83;20.79;100596.53;5041069;28;20453;-82
2021/06/19 08:35:07;;;;;;;9.13;7.93;;;;;;;39.87;22.28;100600.94;5051581;28;20048;-83
2021/06/19 08:37:35;;;;;;;17.42;7.47;;;;;;;38.55;23.58;100594.81;5057672;28;20044;-83
2021/06/19 08:40:04;;;;;;;7.28;6.57;;;;;;;38.33;24.21;100588.78;5084467;28;20058;-84
2021/06/19 08:42:33;;;;;;;13.18;6.88;;;;;;;37.32;25.56;100598.38;5084676;28;20115;-84
2021/06/19 08:45:01;;;;;;;7.60;6.28;;;;;;;37.05;25.29;100588.38;5051552;28;20044;-83
2021/06/19 08:47:36;;;;;;;6.78;5.82;;;;;;;36.82;25.65;100597.84;5091292;28;20503;-84
2021/06/19 08:50:09;;;;;;;11.48;6.85;;;;;;;36.11;26.88;100589.03;5074039;28;20127;-82
2021/06/19 08:52:37;;;;;;;8.00;7.00;;;;;;;35.92;27.39;100592.13;5069722;28;20048;-81
2021/06/19 08:55:08;;;;;;;13.18;6.57;;;;;;;35.86;27.49;100595.09;5060755;28;20048;-83
2021/06/19 08:57:36;;;;;;;8.65;6.75;;;;;;;34.95;28.65;100593.69;5070189;28;20036;-83
2021/06/19 09:00:06;;;;;;;8.27;6.53;;;;;;;34.98;29.06;100595.09;5077691;28;20132;-82
2021/06/19 09:02:33;;;;;;;10.20;6.55;;;;;;;34.82;28.94;100596.78;5060322;28;20197;-83
2021/06/19 09:05:07;;;;;;;12.15;6.63;;;;;;;34.75;29.07;100585.19;5082692;28;20044;-83
2021/06/19 09:07:40;;;;;;;;;;;;;;;34.74;29.84;100589.81;5078417;28;20059;-83
2021/06/19 09:10:37;;;;;;;6.90;6.20;;;;;;;34.90;29.52;100585.41;5064044;28;19931;-82
2021/06/19 09:13:22;;;;;;;7.90;6.32;;;;;;;35.11;28.44;100586.53;5046190;28;20044;-83
2021/06/19 09:15:53;;;;;;;6.82;6.13;;;;;;;35.11;28.18;100586.53;5037699;28;20053;-84
2021/06/19 09:18:28;;;;;;;9.65;6.95;;;;;;;35.17;27.11;100585.53;5046685;28;20400;-82
2021/06/19 09:20:58;;;;;;;6.47;5.80;;;;;;;35.14;27.83;100585.22;5054199;28;20516;-84
2021/06/19 09:23:39;;;;;;;13.45;6.30;;;;;;;35.16;27.94;100589.31;5069413;28;20079;-82
2021/06/19 09:26:20;;;;;;;7.20;5.97;;;;;;;35.25;27.69;100586.97;5079116;28;20052;-83
2021/06/19 09:29:04;;;;;;;7.20;6.07;;;;;;;35.40;28.16;100581.69;5057578;28;20048;-82
2021/06/19 09:31:41;;;;;;;;;;;;;;;35.18;27.12;100589.91;5046482;28;20404;-83
2021/06/19 09:34:23;;;;;;;14.48;6.03;;;;;;;35.12;28.10;100590.09;5077886;28;19924;-83
2021/06/19 09:36:55;;;;;;;12.00;6.97;;;;;;;35.29;27.75;100581.81;5066415;28;20056;-82
2021/06/19 09:39:24;;;;;;;6.93;5.43;;;;;;;35.26;26.60;100581.25;5062556;28;20053;-82
2021/06/19 09:41:53;;;;;;;9.93;5.85;;;;;;;34.22;27.57;100583.75;5066829;28;20052;-83
2021/06/19 09:44:38;;;;;;;15.85;6.18;;;;;;;35.10;26.58;100589.53;5068117;28;20079;-84
2021/06/19 09:47:07;;;;;;;6.97;5.88;;;;;;;35.60;26.10;100585.78;5080475;28;20059;-82
2021/06/19 09:49:38;;;;;;;5.60;5.00;;;;;;;36.20;24.79;100573.78;5068501;28;20036;-83
2021/06/19 09:52:06;;;;;;;6.13;4.78;;;;;;;36.44;23.69;100577.03;5068170;28;20068;-83
2021/06/19 09:54:40;;;;;;;8.48;6.03;;;;;;;36.64;23.40;100576.31;5078404;28;20103;-83
2021/06/19 09:57:16;;;;;;;10.98;5.05;;;;;;;36.46;23.38;100569.34;5070575;28;20441;-79
2021/06/19 09:59:44;;;;;;;9.05;5.20;;;;;;;35.98;23.90;100566.50;5040299;28;20044;-83
2021/06/19 10:02:30;;;;;;;6.03;4.05;;;;;;;36.66;22.26;100574.16;5068881;28;20348;-81
2021/06/19 10:04:57;;;;;;;5.05;4.25;;;;;;;36.54;22.30;100559.81;5080853;28;20097;-83
2021/06/19 10:07:28;;;;;;;7.45;5.10;;;;;;;36.26;22.12;100570.00;5073121;28;20055;-81
2021/06/19 10:09:57;;;;;;;17.42;5.25;;;;;;;36.06;22.92;100562.41;5091933;28;20048;-80
2021/06/19 10:12:31;;;;;;;4.70;4.05;;;;;;;36.49;21.44;100561.44;5070392;28;20027;-83
2021/06/19 10:14:58;;;;;;;;;;;;;;;36.75;21.63;100562.41;5070543;28;20044;-81
2021/06/19 10:17:32;;;;;;;11.45;5.30;;;;;;;36.45;21.83;100557.56;5085685;28;19920;-82
2021/06/19 10:20:02;;;;;;;7.68;4.88;;;;;;;35.84;21.83;100556.97;5059258;28;20579;-83
2021/06/19 10:22:32;;;;;;;7.00;4.80;;;;;;;36.33;21.84;100559.63;5078132;28;20378;-82
2021/06/19 10:25:06;;;;;;;6.70;4.22;;;;;;;36.67;21.74;100548.38;5074738;28;20055;-83
2021/06/19 10:27:36;;;;;;;12.32;5.68;;;;;;;36.74;21.85;100557.19;5061503;28;20049;-83
2021/06/19 10:30:05;;;;;;;8.40;5.20;;;;;;;36.80;22.18;100558.88;5061346;28;20040;-82
2021/06/19 10:32:39;;;;;;;7.93;4.65;;;;;;;36.62;22.12;100551.09;5078340;28;20036;-84
2021/06/19 10:35:13;;;;;;;7.13;4.55;;;;;;;36.98;22.12;100554.88;5059160;28;20177;-84
2021/06/19 10:37:41;;;;;;;7.13;4.70;;;;;;;36.40;21.99;100552.00;5047485;28;20053;-81
2021/06/19 10:40:19;;;;;;;6.38;4.65;;;;;;;36.81;22.13;100541.31;5082776;28;20365;-83
2021/06/19 10:42:48;;;;;;;8.07;5.32;;;;;;;36.86;21.19;100546.00;5058577;28;20052;-83
2021/06/19 10:45:24;;;;;;;7.03;5.15;;;;;;;37.05;21.60;100549.13;5064835;28;20271;-83
2021/06/19 10:48:07;;;;;;;7.65;5.10;;;;;;;36.75;22.70;100547.88;5085416;28;20323;-84
2021/06/19 10:50:42;;;;;;;8.15;4.57;;;;;;;36.00;22.64;100542.38;5065108;28;20063;-82
2021/06/19 10:53:15;;;;;;;7.55;4.70;;;;;;;36.18;22.81;100534.84;5065778;28;20053;-81
2021/06/19 10:55:42;;;;;;;12.27;5.45;;;;;;;36.64;22.71;100544.25;5048225;28;20044;-82
2021/06/19 10:58:34;;;;;;;6.40;4.32;;;;;;;36.18;22.62;100540.34;5060053;28;20044;-82
2021/06/19 11:01:03;;;;;;;7.50;4.35;;;;;;;36.58;22.39;100534.34;5049063;28;20051;-83
2021/06/19 11:03:44;;;;;;;5.07;4.57;;;;;;;36.99;22.10;100546.38;5071435;28;20040;-82
2021/06/19 11:06:41;;;;;;;7.18;4.32;;;;;;;36.46;22.30;100536.44;5071444;28;20056;-82
2021/06/19 11:09:19;;;;;;;5.47;4.85;;;;;;;36.00;23.14;100522.38;5069267;28;20044;-82
2021/06/19 11:11:54;;;;;;;7.03;4.85;;;;;;;36.22;23.34;100528.59;5046937;28;20532;-84
2021/06/19 11:14:40;;;;;;;6.57;4.80;;;;;;;36.39;23.19;100524.88;5064171;28;20052;-84
2021/06/19 11:17:23;;;;;;;10.95;4.68;;;;;;;35.91;23.63;100523.91;5039445;28;20050;-81
2021/06/19 11:19:57;;;;;;;7.38;5.10;;;;;;;35.55;23.59;100520.84;5076818;28;20048;-83
2021/06/19 11:22:47;;;;;;;8.93;5.15;;;;;;;35.76;24.33;100519.97;5056494;28;20028;-82
2021/06/19 11:25:33;;;;;;;9.77;4.70;;;;;;;36.06;23.63;100526.81;5071213;28;20422;-82
2021/06/19 11:28:21;;;;;;;5.40;4.47;;;;;;;36.39;23.61;100519.38;5064387;28;20036;-82
2021/06/19 11:30:51;;;;;;;8.85;5.10;;;;;;;36.26;23.47;100513.25;5073335;28;20085;-82
2021/06/19 11:33:23;;;;;;;9.45;4.93;;;;;;;35.76;24.08;100510.91;5067961;28;20152;-80
2021/06/19 11:35:56;;;;;;;5.00;4.50;;;;;;;36.11;23.15;100509.56;5075482;28;20064;-84